Terminal Aerodrome Forecast
Issued by NWS Springfield, MO

Home | Current Version | Previous Version | Text Only | Print | Product List | Glossary On
Versions: 1 2 3 4 5 6 7 8 9 10 11 12 13 14 15
000
FTUS43 KSGF 270500
TAFSGF
TAF
KSGF 270530Z 2706/2806 34005KT P6SM SKC
     FM271500 03004KT P6SM SKC
     FM272300 09004KT P6SM SKC
     FM280300 13007KT P6SM SKC=

USA.gov is the U.S. government's official web portal to all federal, state and local government web resources and services.